sensor_id;sensor_type;location;lat;lon;timestamp;temperature;humidity
1429;DHT22;708;51.442;7.016;2023-12-22T00:01:12;8.30;1.00
1429;DHT22;708;51.442;7.016;2023-12-22T00:03:40;8.40;1.00
1429;DHT22;708;51.442;7.016;2023-12-22T00:06:07;8.10;1.00
1429;DHT22;708;51.442;7.016;2023-12-22T00:08:35;8.10;1.00
1429;DHT22;708;51.442;7.016;2023-12-22T00:11:02;8.10;1.00
1429;DHT22;708;51.442;7.016;2023-12-22T00:13:29;8.00;1.00
1429;DHT22;708;51.442;7.016;2023-12-22T00:15:55;8.00;1.00
1429;DHT22;708;51.442;7.016;2023-12-22T00:18:22;7.90;1.00
1429;DHT22;708;51.442;7.016;2023-12-22T00:20:49;7.70;1.00
1429;DHT22;708;51.442;7.016;2023-12-22T00:23:15;7.80;1.00
1429;DHT22;708;51.442;7.016;2023-12-22T00:25:43;7.80;1.00
1429;DHT22;708;51.442;7.016;2023-12-22T00:28:10;7.80;1.00
1429;DHT22;708;51.442;7.016;2023-12-22T00:30:37;7.80;1.00
1429;DHT22;708;51.442;7.016;2023-12-22T00:33:04;7.90;1.00
1429;DHT22;708;51.442;7.016;2023-12-22T00:35:31;7.80;1.00
1429;DHT22;708;51.442;7.016;2023-12-22T00:37:58;7.90;1.00
1429;DHT22;708;51.442;7.016;2023-12-22T00:40:25;7.90;1.00
1429;DHT22;708;51.442;7.016;2023-12-22T00:42:53;8.00;1.00
1429;DHT22;708;51.442;7.016;2023-12-22T00:45:20;8.00;1.00
1429;DHT22;708;51.442;7.016;2023-12-22T00:47:46;8.10;1.00
1429;DHT22;708;51.442;7.016;2023-12-22T00:50:13;8.10;1.00
1429;DHT22;708;51.442;7.016;2023-12-22T00:52:40;8.10;1.00
1429;DHT22;708;51.442;7.016;2023-12-22T00:55:07;8.10;1.00
1429;DHT22;708;51.442;7.016;2023-12-22T00:57:33;8.10;1.00
1429;DHT22;708;51.442;7.016;2023-12-22T01:00:02;8.10;1.00
1429;DHT22;708;51.442;7.016;2023-12-22T01:02:30;8.20;1.00
1429;DHT22;708;51.442;7.016;2023-12-22T01:04:57;8.20;1.00
1429;DHT22;708;51.442;7.016;2023-12-22T01:07:23;8.30;1.00
1429;DHT22;708;51.442;7.016;2023-12-22T01:10:02;8.20;1.00
1429;DHT22;708;51.442;7.016;2023-12-22T01:12:29;8.20;1.00
1429;DHT22;708;51.442;7.016;2023-12-22T01:14:56;8.20;1.00
1429;DHT22;708;51.442;7.016;2023-12-22T01:17:24;8.40;1.00
1429;DHT22;708;51.442;7.016;2023-12-22T01:19:51;8.40;1.00
1429;DHT22;708;51.442;7.016;2023-12-22T01:22:18;8.30;1.00
1429;DHT22;708;51.442;7.016;2023-12-22T01:24:44;8.30;1.00
1429;DHT22;708;51.442;7.016;2023-12-22T01:27:11;8.20;1.00
1429;DHT22;708;51.442;7.016;2023-12-22T01:29:38;8.00;1.00
1429;DHT22;708;51.442;7.016;2023-12-22T01:32:06;7.90;1.00
1429;DHT22;708;51.442;7.016;2023-12-22T01:34:34;7.90;1.00
1429;DHT22;708;51.442;7.016;2023-12-22T01:37:00;7.60;1.00
1429;DHT22;708;51.442;7.016;2023-12-22T01:39:27;7.40;1.00
1429;DHT22;708;51.442;7.016;2023-12-22T01:41:54;7.10;1.00
1429;DHT22;708;51.442;7.016;2023-12-22T01:44:21;6.90;11.20
1429;DHT22;708;51.442;7.016;2023-12-22T01:46:48;6.70;43.30
1429;DHT22;708;51.442;7.016;2023-12-22T01:49:16;6.50;43.50
1429;DHT22;708;51.442;7.016;2023-12-22T01:51:44;6.40;32.20
1429;DHT22;708;51.442;7.016;2023-12-22T01:54:13;6.40;40.60
1429;DHT22;708;51.442;7.016;2023-12-22T01:56:41;6.40;46.70
1429;DHT22;708;51.442;7.016;2023-12-22T01:59:08;6.40;49.20
1429;DHT22;708;51.442;7.016;2023-12-22T02:01:35;6.50;53.40
1429;DHT22;708;51.442;7.016;2023-12-22T02:04:02;6.60;54.30
1429;DHT22;708;51.442;7.016;2023-12-22T02:06:30;6.50;53.10
1429;DHT22;708;51.442;7.016;2023-12-22T02:08:58;6.60;50.30
1429;DHT22;708;51.442;7.016;2023-12-22T02:11:25;6.70;37.60
1429;DHT22;708;51.442;7.016;2023-12-22T02:13:52;6.70;36.80
1429;DHT22;708;51.442;7.016;2023-12-22T02:16:22;6.90;30.90
1429;DHT22;708;51.442;7.016;2023-12-22T02:18:55;6.90;23.40
1429;DHT22;708;51.442;7.016;2023-12-22T02:21:22;6.90;19.30
1429;DHT22;708;51.442;7.016;2023-12-22T02:23:50;6.90;14.40
1429;DHT22;708;51.442;7.016;2023-12-22T02:26:22;6.90;17.10
1429;DHT22;708;51.442;7.016;2023-12-22T02:28:52;7.00;21.00
1429;DHT22;708;51.442;7.016;2023-12-22T02:31:27;7.10;21.70
1429;DHT22;708;51.442;7.016;2023-12-22T02:33:55;7.00;18.60
1429;DHT22;708;51.442;7.016;2023-12-22T02:36:26;7.00;21.50
1429;DHT22;708;51.442;7.016;2023-12-22T02:38:56;7.00;27.70
1429;DHT22;708;51.442;7.016;2023-12-22T02:41:24;7.00;26.10
1429;DHT22;708;51.442;7.016;2023-12-22T02:43:51;7.00;35.40
1429;DHT22;708;51.442;7.016;2023-12-22T02:46:18;7.00;57.30
1429;DHT22;708;51.442;7.016;2023-12-22T02:48:45;7.00;50.30
1429;DHT22;708;51.442;7.016;2023-12-22T02:51:12;7.00;46.00
1429;DHT22;708;51.442;7.016;2023-12-22T02:53:38;7.00;43.00
1429;DHT22;708;51.442;7.016;2023-12-22T02:56:07;7.00;32.60
1429;DHT22;708;51.442;7.016;2023-12-22T02:58:33;7.00;17.10
1429;DHT22;708;51.442;7.016;2023-12-22T03:01:00;6.90;7.60
1429;DHT22;708;51.442;7.016;2023-12-22T03:03:27;6.90;8.20
1429;DHT22;708;51.442;7.016;2023-12-22T03:05:54;6.90;5.70
1429;DHT22;708;51.442;7.016;2023-12-22T03:08:20;6.90;13.20
1429;DHT22;708;51.442;7.016;2023-12-22T03:10:47;6.80;19.30
1429;DHT22;708;51.442;7.016;2023-12-22T03:13:15;6.90;27.20
1429;DHT22;708;51.442;7.016;2023-12-22T03:15:42;6.90;39.00
1429;DHT22;708;51.442;7.016;2023-12-22T03:18:09;7.00;45.80
1429;DHT22;708;51.442;7.016;2023-12-22T03:20:35;6.90;43.70
1429;DHT22;708;51.442;7.016;2023-12-22T03:23:03;7.00;55.00
1429;DHT22;708;51.442;7.016;2023-12-22T03:25:29;6.90;54.00
1429;DHT22;708;51.442;7.016;2023-12-22T03:27:56;7.10;54.40
1429;DHT22;708;51.442;7.016;2023-12-22T03:30:24;7.10;48.20
1429;DHT22;708;51.442;7.016;2023-12-22T03:32:51;7.20;39.40
1429;DHT22;708;51.442;7.016;2023-12-22T03:35:17;7.30;30.20
1429;DHT22;708;51.442;7.016;2023-12-22T03:37:44;7.30;20.00
1429;DHT22;708;51.442;7.016;2023-12-22T03:40:11;7.30;23.90
1429;DHT22;708;51.442;7.016;2023-12-22T03:42:38;7.40;18.40
1429;DHT22;708;51.442;7.016;2023-12-22T03:45:06;7.40;10.50
1429;DHT22;708;51.442;7.016;2023-12-22T03:47:34;7.40;9.90
1429;DHT22;708;51.442;7.016;2023-12-22T03:50:00;7.50;5.00
1429;DHT22;708;51.442;7.016;2023-12-22T03:52:27;7.50;4.60
1429;DHT22;708;51.442;7.016;2023-12-22T03:54:54;7.50;3.40
1429;DHT22;708;51.442;7.016;2023-12-22T03:57:20;7.80;3.60
1429;DHT22;708;51.442;7.016;2023-12-22T03:59:47;7.60;3.30
1429;DHT22;708;51.442;7.016;2023-12-22T04:02:14;7.70;1.00
1429;DHT22;708;51.442;7.016;2023-12-22T04:04:42;7.80;1.00
1429;DHT22;708;51.442;7.016;2023-12-22T04:07:09;7.80;1.00
1429;DHT22;708;51.442;7.016;2023-12-22T04:09:37;7.80;1.00
1429;DHT22;708;51.442;7.016;2023-12-22T04:12:04;7.80;1.00
1429;DHT22;708;51.442;7.016;2023-12-22T04:14:31;7.80;1.00
1429;DHT22;708;51.442;7.016;2023-12-22T04:16:58;7.90;1.00
1429;DHT22;708;51.442;7.016;2023-12-22T04:19:24;7.90;1.00
1429;DHT22;708;51.442;7.016;2023-12-22T04:21:53;7.90;1.00
1429;DHT22;708;51.442;7.016;2023-12-22T04:24:19;7.80;1.00
1429;DHT22;708;51.442;7.016;2023-12-22T04:26:46;7.90;1.00
1429;DHT22;708;51.442;7.016;2023-12-22T04:29:13;7.90;1.00
1429;DHT22;708;51.442;7.016;2023-12-22T04:31:40;7.90;1.00
1429;DHT22;708;51.442;7.016;2023-12-22T04:34:07;8.00;1.00
1429;DHT22;708;51.442;7.016;2023-12-22T04:36:34;8.10;1.00
1429;DHT22;708;51.442;7.016;2023-12-22T04:39:02;8.00;1.00
1429;DHT22;708;51.442;7.016;2023-12-22T04:41:29;8.00;1.00
1429;DHT22;708;51.442;7.016;2023-12-22T04:43:56;7.80;1.00
1429;DHT22;708;51.442;7.016;2023-12-22T04:46:22;7.80;8.00
1429;DHT22;708;51.442;7.016;2023-12-22T04:48:49;7.80;21.20
1429;DHT22;708;51.442;7.016;2023-12-22T04:51:16;7.80;29.70
1429;DHT22;708;51.442;7.016;2023-12-22T04:53:42;7.80;36.90
1429;DHT22;708;51.442;7.016;2023-12-22T04:56:10;7.70;34.70
1429;DHT22;708;51.442;7.016;2023-12-22T04:58:37;7.70;31.10
1429;DHT22;708;51.442;7.016;2023-12-22T05:01:04;7.70;39.40
1429;DHT22;708;51.442;7.016;2023-12-22T05:03:31;7.70;46.80
1429;DHT22;708;51.442;7.016;2023-12-22T05:05:57;7.70;39.60
1429;DHT22;708;51.442;7.016;2023-12-22T05:08:24;7.70;32.80
1429;DHT22;708;51.442;7.016;2023-12-22T05:10:51;7.70;40.40
1429;DHT22;708;51.442;7.016;2023-12-22T05:13:19;7.60;33.20
1429;DHT22;708;51.442;7.016;2023-12-22T05:15:45;7.50;18.10
1429;DHT22;708;51.442;7.016;2023-12-22T05:18:12;7.40;13.40
1429;DHT22;708;51.442;7.016;2023-12-22T05:20:39;7.40;23.20
1429;DHT22;708;51.442;7.016;2023-12-22T05:23:06;7.30;24.60
1429;DHT22;708;51.442;7.016;2023-12-22T05:25:32;7.10;21.30
1429;DHT22;708;51.442;7.016;2023-12-22T05:27:59;7.30;19.90
1429;DHT22;708;51.442;7.016;2023-12-22T05:30:27;7.50;28.80
1429;DHT22;708;51.442;7.016;2023-12-22T05:32:54;7.20;34.80
1429;DHT22;708;51.442;7.016;2023-12-22T05:35:21;7.40;36.70
1429;DHT22;708;51.442;7.016;2023-12-22T05:37:47;7.40;35.40
1429;DHT22;708;51.442;7.016;2023-12-22T05:40:14;7.40;37.90
1429;DHT22;708;51.442;7.016;2023-12-22T05:42:41;7.50;46.30
1429;DHT22;708;51.442;7.016;2023-12-22T05:45:08;7.60;46.90
1429;DHT22;708;51.442;7.016;2023-12-22T05:47:37;7.50;48.70
1429;DHT22;708;51.442;7.016;2023-12-22T05:50:05;7.60;48.00
1429;DHT22;708;51.442;7.016;2023-12-22T05:52:32;7.60;54.80
1429;DHT22;708;51.442;7.016;2023-12-22T05:54:59;7.60;43.00
1429;DHT22;708;51.442;7.016;2023-12-22T05:57:25;7.60;38.60
1429;DHT22;708;51.442;7.016;2023-12-22T05:59:52;7.60;37.10
1429;DHT22;708;51.442;7.016;2023-12-22T06:02:19;7.60;24.30
1429;DHT22;708;51.442;7.016;2023-12-22T06:04:48;7.60;21.30
1429;DHT22;708;51.442;7.016;2023-12-22T06:07:14;7.60;24.40
1429;DHT22;708;51.442;7.016;2023-12-22T06:09:41;7.70;23.20
1429;DHT22;708;51.442;7.016;2023-12-22T06:12:08;7.70;21.30
1429;DHT22;708;51.442;7.016;2023-12-22T06:14:35;7.70;14.20
1429;DHT22;708;51.442;7.016;2023-12-22T06:17:01;7.80;11.40
1429;DHT22;708;51.442;7.016;2023-12-22T06:19:28;7.90;12.40
1429;DHT22;708;51.442;7.016;2023-12-22T06:21:57;7.90;3.70
1429;DHT22;708;51.442;7.016;2023-12-22T06:24:25;8.00;1.00
1429;DHT22;708;51.442;7.016;2023-12-22T06:26:52;8.00;1.20
1429;DHT22;708;51.442;7.016;2023-12-22T06:29:18;8.00;1.00
1429;DHT22;708;51.442;7.016;2023-12-22T06:31:45;8.10;1.00
1429;DHT22;708;51.442;7.016;2023-12-22T06:34:16;8.00;1.00
1429;DHT22;708;51.442;7.016;2023-12-22T06:36:43;8.10;1.00
1429;DHT22;708;51.442;7.016;2023-12-22T06:39:11;8.00;1.00
1429;DHT22;708;51.442;7.016;2023-12-22T06:41:38;8.10;1.00
1429;DHT22;708;51.442;7.016;2023-12-22T06:44:04;8.20;1.00
1429;DHT22;708;51.442;7.016;2023-12-22T06:46:31;8.10;1.00
1429;DHT22;708;51.442;7.016;2023-12-22T06:48:59;8.10;1.00
1429;DHT22;708;51.442;7.016;2023-12-22T06:51:27;8.10;1.00
1429;DHT22;708;51.442;7.016;2023-12-22T06:53:56;8.10;1.00
1429;DHT22;708;51.442;7.016;2023-12-22T06:56:27;8.20;1.00
1429;DHT22;708;51.442;7.016;2023-12-22T06:58:55;8.20;1.00
1429;DHT22;708;51.442;7.016;2023-12-22T07:01:24;8.30;1.00
1429;DHT22;708;51.442;7.016;2023-12-22T07:03:51;8.40;1.00
1429;DHT22;708;51.442;7.016;2023-12-22T07:06:18;8.40;1.00
1429;DHT22;708;51.442;7.016;2023-12-22T07:11:48;8.60;1.00
1429;DHT22;708;51.442;7.016;2023-12-22T07:14:15;8.60;1.00
1429;DHT22;708;51.442;7.016;2023-12-22T07:16:42;8.60;1.00
1429;DHT22;708;51.442;7.016;2023-12-22T07:19:09;8.60;1.00
1429;DHT22;708;51.442;7.016;2023-12-22T07:21:36;8.60;1.00
1429;DHT22;708;51.442;7.016;2023-12-22T07:24:03;8.70;1.00
1429;DHT22;708;51.442;7.016;2023-12-22T07:26:30;8.70;1.00
1429;DHT22;708;51.442;7.016;2023-12-22T07:28:58;8.60;1.00
1429;DHT22;708;51.442;7.016;2023-12-22T07:31:25;8.70;1.00
1429;DHT22;708;51.442;7.016;2023-12-22T07:33:52;8.70;1.00
1429;DHT22;708;51.442;7.016;2023-12-22T07:36:19;8.70;1.00
1429;DHT22;708;51.442;7.016;2023-12-22T07:38:46;8.70;1.00
1429;DHT22;708;51.442;7.016;2023-12-22T07:41:13;8.80;1.00
1429;DHT22;708;51.442;7.016;2023-12-22T07:43:40;8.80;1.00
1429;DHT22;708;51.442;7.016;2023-12-22T07:46:16;8.90;1.00
1429;DHT22;708;51.442;7.016;2023-12-22T07:48:42;9.00;1.00
1429;DHT22;708;51.442;7.016;2023-12-22T07:51:10;9.10;1.00
1429;DHT22;708;51.442;7.016;2023-12-22T07:53:37;9.00;1.00
1429;DHT22;708;51.442;7.016;2023-12-22T07:56:05;9.20;1.00
1429;DHT22;708;51.442;7.016;2023-12-22T07:58:32;9.20;1.00
1429;DHT22;708;51.442;7.016;2023-12-22T08:00:59;9.30;1.00
1429;DHT22;708;51.442;7.016;2023-12-22T08:03:27;9.30;1.00
1429;DHT22;708;51.442;7.016;2023-12-22T08:05:54;9.30;1.00
1429;DHT22;708;51.442;7.016;2023-12-22T08:08:21;9.40;1.00
1429;DHT22;708;51.442;7.016;2023-12-22T08:10:48;9.40;1.00
1429;DHT22;708;51.442;7.016;2023-12-22T08:13:14;9.30;1.00
1429;DHT22;708;51.442;7.016;2023-12-22T08:15:43;9.40;1.00
1429;DHT22;708;51.442;7.016;2023-12-22T08:18:10;9.50;1.00
1429;DHT22;708;51.442;7.016;2023-12-22T08:20:38;9.50;1.00
1429;DHT22;708;51.442;7.016;2023-12-22T08:23:05;9.60;1.00
1429;DHT22;708;51.442;7.016;2023-12-22T08:25:31;9.70;1.00
1429;DHT22;708;51.442;7.016;2023-12-22T08:27:58;9.70;1.00
1429;DHT22;708;51.442;7.016;2023-12-22T08:30:25;9.80;1.00
1429;DHT22;708;51.442;7.016;2023-12-22T08:32:51;9.90;1.00
1429;DHT22;708;51.442;7.016;2023-12-22T08:35:19;9.90;1.00
1429;DHT22;708;51.442;7.016;2023-12-22T08:37:47;10.00;1.00
1429;DHT22;708;51.442;7.016;2023-12-22T08:40:14;10.00;1.00
1429;DHT22;708;51.442;7.016;2023-12-22T08:42:40;10.00;1.00
1429;DHT22;708;51.442;7.016;2023-12-22T08:45:08;10.10;1.00
1429;DHT22;708;51.442;7.016;2023-12-22T08:47:34;10.20;1.00
1429;DHT22;708;51.442;7.016;2023-12-22T08:50:01;10.20;1.00
1429;DHT22;708;51.442;7.016;2023-12-22T08:52:29;10.20;1.00
1429;DHT22;708;51.442;7.016;2023-12-22T08:54:58;10.30;1.00
1429;DHT22;708;51.442;7.016;2023-12-22T08:57:24;10.20;1.00
1429;DHT22;708;51.442;7.016;2023-12-22T08:59:52;10.30;1.00
1429;DHT22;708;51.442;7.016;2023-12-22T09:02:20;10.30;1.00
1429;DHT22;708;51.442;7.016;2023-12-22T09:04:46;10.30;1.00
1429;DHT22;708;51.442;7.016;2023-12-22T09:07:13;10.40;1.00
1429;DHT22;708;51.442;7.016;2023-12-22T09:09:40;10.50;1.00
1429;DHT22;708;51.442;7.016;2023-12-22T09:12:08;10.10;1.00
1429;DHT22;708;51.442;7.016;2023-12-22T09:14:34;10.30;1.00
1429;DHT22;708;51.442;7.016;2023-12-22T09:17:01;10.30;1.00
1429;DHT22;708;51.442;7.016;2023-12-22T09:19:28;10.10;1.00
1429;DHT22;708;51.442;7.016;2023-12-22T09:21:55;10.00;1.00
1429;DHT22;708;51.442;7.016;2023-12-22T09:24:21;9.90;1.00
1429;DHT22;708;51.442;7.016;2023-12-22T09:26:48;9.80;1.00
1429;DHT22;708;51.442;7.016;2023-12-22T09:29:17;9.80;1.00
1429;DHT22;708;51.442;7.016;2023-12-22T09:31:44;9.90;1.00
1429;DHT22;708;51.442;7.016;2023-12-22T09:34:11;9.70;1.00
1429;DHT22;708;51.442;7.016;2023-12-22T09:36:38;9.50;1.00
1429;DHT22;708;51.442;7.016;2023-12-22T09:39:05;9.50;9.90
1429;DHT22;708;51.442;7.016;2023-12-22T09:41:31;9.30;26.20
1429;DHT22;708;51.442;7.016;2023-12-22T09:43:59;9.20;43.10
1429;DHT22;708;51.442;7.016;2023-12-22T09:46:29;9.10;50.20
1429;DHT22;708;51.442;7.016;2023-12-22T09:48:57;9.10;55.40
1429;DHT22;708;51.442;7.016;2023-12-22T09:51:24;9.10;62.50
1429;DHT22;708;51.442;7.016;2023-12-22T09:53:51;9.00;74.30
1429;DHT22;708;51.442;7.016;2023-12-22T09:56:19;9.10;92.90
1429;DHT22;708;51.442;7.016;2023-12-22T09:58:47;9.20;99.90
1429;DHT22;708;51.442;7.016;2023-12-22T10:01:15;9.30;99.90
1429;DHT22;708;51.442;7.016;2023-12-22T10:03:43;9.30;99.90
1429;DHT22;708;51.442;7.016;2023-12-22T10:06:11;9.30;99.90
1429;DHT22;708;51.442;7.016;2023-12-22T10:08:39;9.30;99.90
1429;DHT22;708;51.442;7.016;2023-12-22T10:11:06;9.30;99.90
1429;DHT22;708;51.442;7.016;2023-12-22T10:13:36;9.20;99.90
1429;DHT22;708;51.442;7.016;2023-12-22T10:16:05;9.30;99.90
1429;DHT22;708;51.442;7.016;2023-12-22T10:18:33;9.20;99.90
1429;DHT22;708;51.442;7.016;2023-12-22T10:21:01;9.30;99.90
1429;DHT22;708;51.442;7.016;2023-12-22T10:23:28;9.30;99.90
1429;DHT22;708;51.442;7.016;2023-12-22T10:25:57;9.40;99.90
1429;DHT22;708;51.442;7.016;2023-12-22T10:28:24;9.40;99.90
1429;DHT22;708;51.442;7.016;2023-12-22T10:30:53;9.50;99.90
1429;DHT22;708;51.442;7.016;2023-12-22T10:33:21;9.50;99.90
1429;DHT22;708;51.442;7.016;2023-12-22T10:35:48;9.50;99.90
1429;DHT22;708;51.442;7.016;2023-12-22T10:38:19;9.60;99.90
1429;DHT22;708;51.442;7.016;2023-12-22T10:40:46;9.60;99.90
1429;DHT22;708;51.442;7.016;2023-12-22T10:43:15;9.70;99.90
1429;DHT22;708;51.442;7.016;2023-12-22T10:45:42;9.70;99.90
1429;DHT22;708;51.442;7.016;2023-12-22T10:48:09;9.80;99.90
1429;DHT22;708;51.442;7.016;2023-12-22T10:50:36;9.80;99.90
1429;DHT22;708;51.442;7.016;2023-12-22T10:53:06;9.80;84.40
1429;DHT22;708;51.442;7.016;2023-12-22T10:55:35;9.70;69.50
1429;DHT22;708;51.442;7.016;2023-12-22T10:58:03;9.70;85.00
1429;DHT22;708;51.442;7.016;2023-12-22T11:00:31;9.80;95.60
1429;DHT22;708;51.442;7.016;2023-12-22T11:03:01;9.70;99.90
1429;DHT22;708;51.442;7.016;2023-12-22T11:05:29;9.70;98.00
1429;DHT22;708;51.442;7.016;2023-12-22T11:08:00;9.60;38.40
1429;DHT22;708;51.442;7.016;2023-12-22T11:10:30;9.50;71.00
1429;DHT22;708;51.442;7.016;2023-12-22T11:12:59;9.40;48.00
1429;DHT22;708;51.442;7.016;2023-12-22T11:15:27;9.30;49.20
1429;DHT22;708;51.442;7.016;2023-12-22T11:17:56;9.30;45.70
1429;DHT22;708;51.442;7.016;2023-12-22T11:20:23;9.30;55.80
1429;DHT22;708;51.442;7.016;2023-12-22T11:22:51;9.30;53.20
1429;DHT22;708;51.442;7.016;2023-12-22T11:25:19;9.30;55.40
1429;DHT22;708;51.442;7.016;2023-12-22T11:27:48;9.30;60.90
1429;DHT22;708;51.442;7.016;2023-12-22T11:30:20;9.50;69.30
1429;DHT22;708;51.442;7.016;2023-12-22T11:32:49;9.60;57.90
1429;DHT22;708;51.442;7.016;2023-12-22T11:35:16;9.60;46.70
1429;DHT22;708;51.442;7.016;2023-12-22T11:37:43;9.60;43.40
1429;DHT22;708;51.442;7.016;2023-12-22T11:40:11;9.70;51.60
1429;DHT22;708;51.442;7.016;2023-12-22T11:42:41;9.80;50.00
1429;DHT22;708;51.442;7.016;2023-12-22T11:45:10;9.90;55.20
1429;DHT22;708;51.442;7.016;2023-12-22T11:47:40;9.90;69.10
1429;DHT22;708;51.442;7.016;2023-12-22T11:50:09;9.90;80.80
1429;DHT22;708;51.442;7.016;2023-12-22T11:52:36;10.00;91.60
1429;DHT22;708;51.442;7.016;2023-12-22T11:55:03;10.10;97.60
1429;DHT22;708;51.442;7.016;2023-12-22T11:57:33;10.20;99.90
1429;DHT22;708;51.442;7.016;2023-12-22T12:00:07;10.30;99.20
1429;DHT22;708;51.442;7.016;2023-12-22T12:02:35;10.40;99.90
1429;DHT22;708;51.442;7.016;2023-12-22T12:05:06;10.50;92.70
1429;DHT22;708;51.442;7.016;2023-12-22T12:07:44;10.60;84.60
1429;DHT22;708;51.442;7.016;2023-12-22T12:10:11;10.70;82.20
1429;DHT22;708;51.442;7.016;2023-12-22T12:12:40;10.70;76.80
1429;DHT22;708;51.442;7.016;2023-12-22T12:15:08;10.80;62.10
1429;DHT22;708;51.442;7.016;2023-12-22T12:17:39;10.90;52.60
1429;DHT22;708;51.442;7.016;2023-12-22T12:20:10;11.00;41.90
1429;DHT22;708;51.442;7.016;2023-12-22T12:22:38;11.00;23.90
1429;DHT22;708;51.442;7.016;2023-12-22T12:25:09;11.20;10.80
1429;DHT22;708;51.442;7.016;2023-12-22T12:27:37;11.20;9.40
1429;DHT22;708;51.442;7.016;2023-12-22T12:30:11;11.40;1.00
1429;DHT22;708;51.442;7.016;2023-12-22T12:32:39;11.50;1.00
1429;DHT22;708;51.442;7.016;2023-12-22T12:35:08;11.60;1.00
1429;DHT22;708;51.442;7.016;2023-12-22T12:37:35;11.60;1.00
1429;DHT22;708;51.442;7.016;2023-12-22T12:40:07;11.60;1.00
1429;DHT22;708;51.442;7.016;2023-12-22T12:42:35;11.70;1.00
1429;DHT22;708;51.442;7.016;2023-12-22T12:45:03;11.80;1.00
1429;DHT22;708;51.442;7.016;2023-12-22T12:47:30;11.70;1.00
1429;DHT22;708;51.442;7.016;2023-12-22T12:49:57;11.60;1.00
1429;DHT22;708;51.442;7.016;2023-12-22T12:52:26;11.30;1.00
1429;DHT22;708;51.442;7.016;2023-12-22T12:54:53;11.10;1.00
1429;DHT22;708;51.442;7.016;2023-12-22T12:57:25;10.90;2.00
1429;DHT22;708;51.442;7.016;2023-12-22T13:00:01;10.80;12.10
1429;DHT22;708;51.442;7.016;2023-12-22T13:02:35;10.80;36.50
1429;DHT22;708;51.442;7.016;2023-12-22T13:05:02;10.70;48.80
1429;DHT22;708;51.442;7.016;2023-12-22T13:07:32;10.70;48.20
1429;DHT22;708;51.442;7.016;2023-12-22T13:10:01;10.60;54.30
1429;DHT22;708;51.442;7.016;2023-12-22T13:12:28;10.60;72.00
1429;DHT22;708;51.442;7.016;2023-12-22T13:14:55;10.50;88.10
1429;DHT22;708;51.442;7.016;2023-12-22T13:17:28;10.50;91.80
1429;DHT22;708;51.442;7.016;2023-12-22T13:19:57;10.40;96.40
1429;DHT22;708;51.442;7.016;2023-12-22T13:22:24;10.40;95.90
1429;DHT22;708;51.442;7.016;2023-12-22T13:24:58;10.30;77.90
1429;DHT22;708;51.442;7.016;2023-12-22T13:27:25;10.30;74.40
1429;DHT22;708;51.442;7.016;2023-12-22T13:29:51;10.30;72.10
1429;DHT22;708;51.442;7.016;2023-12-22T13:32:22;10.40;76.30
1429;DHT22;708;51.442;7.016;2023-12-22T13:34:50;10.40;80.10
1429;DHT22;708;51.442;7.016;2023-12-22T13:37:16;10.50;69.90
1429;DHT22;708;51.442;7.016;2023-12-22T13:39:43;10.60;54.50
1429;DHT22;708;51.442;7.016;2023-12-22T13:42:16;10.70;53.60
1429;DHT22;708;51.442;7.016;2023-12-22T13:44:44;10.80;48.90
1429;DHT22;708;51.442;7.016;2023-12-22T13:47:13;10.90;41.50
1429;DHT22;708;51.442;7.016;2023-12-22T13:49:40;10.90;33.70
1429;DHT22;708;51.442;7.016;2023-12-22T13:52:06;10.90;30.10
1429;DHT22;708;51.442;7.016;2023-12-22T13:54:33;10.90;33.70
1429;DHT22;708;51.442;7.016;2023-12-22T13:57:00;11.00;32.80
1429;DHT22;708;51.442;7.016;2023-12-22T13:59:32;10.90;21.60
1429;DHT22;708;51.442;7.016;2023-12-22T14:01:59;11.00;17.00
1429;DHT22;708;51.442;7.016;2023-12-22T14:04:26;11.00;18.50
1429;DHT22;708;51.442;7.016;2023-12-22T14:06:53;11.10;17.60
1429;DHT22;708;51.442;7.016;2023-12-22T14:09:20;11.10;16.80
1429;DHT22;708;51.442;7.016;2023-12-22T14:12:10;11.20;13.70
1429;DHT22;708;51.442;7.016;2023-12-22T14:14:38;11.30;18.90
1429;DHT22;708;51.442;7.016;2023-12-22T14:17:04;11.20;10.80
1429;DHT22;708;51.442;7.016;2023-12-22T14:19:31;11.30;15.50
1429;DHT22;708;51.442;7.016;2023-12-22T14:21:58;11.20;9.40
1429;DHT22;708;51.442;7.016;2023-12-22T14:24:25;11.30;8.60
1429;DHT22;708;51.442;7.016;2023-12-22T14:26:52;11.30;10.20
1429;DHT22;708;51.442;7.016;2023-12-22T14:29:20;11.40;1.00
1429;DHT22;708;51.442;7.016;2023-12-22T14:31:49;11.40;1.00
1429;DHT22;708;51.442;7.016;2023-12-22T14:34:16;11.40;1.00
1429;DHT22;708;51.442;7.016;2023-12-22T14:36:43;11.40;1.00
1429;DHT22;708;51.442;7.016;2023-12-22T14:39:10;11.60;1.00
1429;DHT22;708;51.442;7.016;2023-12-22T14:41:39;11.50;1.00
1429;DHT22;708;51.442;7.016;2023-12-22T14:44:07;11.50;1.00
1429;DHT22;708;51.442;7.016;2023-12-22T14:46:37;11.50;1.00
1429;DHT22;708;51.442;7.016;2023-12-22T14:49:06;11.60;1.00
1429;DHT22;708;51.442;7.016;2023-12-22T14:51:36;11.50;1.00
1429;DHT22;708;51.442;7.016;2023-12-22T14:54:04;11.50;1.00
1429;DHT22;708;51.442;7.016;2023-12-22T14:56:30;11.50;1.00
1429;DHT22;708;51.442;7.016;2023-12-22T14:58:57;11.40;1.00
1429;DHT22;708;51.442;7.016;2023-12-22T15:01:24;11.50;1.00
1429;DHT22;708;51.442;7.016;2023-12-22T15:03:51;11.50;1.00
1429;DHT22;708;51.442;7.016;2023-12-22T15:06:19;11.50;1.00
1429;DHT22;708;51.442;7.016;2023-12-22T15:08:46;11.50;1.00
1429;DHT22;708;51.442;7.016;2023-12-22T15:11:12;11.50;1.00
1429;DHT22;708;51.442;7.016;2023-12-22T15:13:39;11.50;1.00
1429;DHT22;708;51.442;7.016;2023-12-22T15:16:07;11.70;1.00
1429;DHT22;708;51.442;7.016;2023-12-22T15:18:33;11.50;1.00
1429;DHT22;708;51.442;7.016;2023-12-22T15:21:00;11.50;1.00
1429;DHT22;708;51.442;7.016;2023-12-22T15:23:29;11.50;1.00
1429;DHT22;708;51.442;7.016;2023-12-22T15:25:56;11.50;1.00
1429;DHT22;708;51.442;7.016;2023-12-22T15:28:23;11.40;1.00
1429;DHT22;708;51.442;7.016;2023-12-22T15:30:49;11.40;1.00
1429;DHT22;708;51.442;7.016;2023-12-22T15:33:17;11.20;1.00
1429;DHT22;708;51.442;7.016;2023-12-22T15:35:44;11.10;1.00
1429;DHT22;708;51.442;7.016;2023-12-22T15:38:11;11.10;2.10
1429;DHT22;708;51.442;7.016;2023-12-22T15:40:41;11.10;9.70
1429;DHT22;708;51.442;7.016;2023-12-22T15:43:08;11.10;17.40
1429;DHT22;708;51.442;7.016;2023-12-22T15:45:35;11.10;25.40
1429;DHT22;708;51.442;7.016;2023-12-22T15:48:01;11.10;36.00
1429;DHT22;708;51.442;7.016;2023-12-22T15:50:28;11.10;46.40
1429;DHT22;708;51.442;7.016;2023-12-22T15:52:55;11.20;52.60
1429;DHT22;708;51.442;7.016;2023-12-22T15:55:22;11.10;47.80
1429;DHT22;708;51.442;7.016;2023-12-22T15:57:50;11.10;51.30
1429;DHT22;708;51.442;7.016;2023-12-22T16:00:18;11.20;50.60
1429;DHT22;708;51.442;7.016;2023-12-22T16:02:45;11.20;43.80
1429;DHT22;708;51.442;7.016;2023-12-22T16:05:13;11.30;26.50
1429;DHT22;708;51.442;7.016;2023-12-22T16:07:40;11.30;19.40
1429;DHT22;708;51.442;7.016;2023-12-22T16:10:07;11.20;7.60
1429;DHT22;708;51.442;7.016;2023-12-22T16:12:34;11.30;11.90
1429;DHT22;708;51.442;7.016;2023-12-22T16:15:03;11.30;8.20
1429;DHT22;708;51.442;7.016;2023-12-22T16:17:30;11.20;7.00
1429;DHT22;708;51.442;7.016;2023-12-22T16:19:57;11.20;11.60
1429;DHT22;708;51.442;7.016;2023-12-22T16:22:23;11.30;20.10
1429;DHT22;708;51.442;7.016;2023-12-22T16:24:50;11.30;32.70
1429;DHT22;708;51.442;7.016;2023-12-22T16:27:17;11.20;36.30
1429;DHT22;708;51.442;7.016;2023-12-22T16:29:44;11.10;42.60
1429;DHT22;708;51.442;7.016;2023-12-22T16:32:13;11.20;47.30
1429;DHT22;708;51.442;7.016;2023-12-22T16:34:42;11.10;58.60
1429;DHT22;708;51.442;7.016;2023-12-22T16:37:09;11.10;83.60
1429;DHT22;708;51.442;7.016;2023-12-22T16:39:48;11.00;98.10
1429;DHT22;708;51.442;7.016;2023-12-22T16:42:15;11.00;92.00